createdAt,value
2018-07-11T00:01:53.033Z,7.13
2018-07-11T00:04:20.126Z,9.83
2018-07-11T00:06:47.238Z,11.60
2018-07-11T00:09:14.565Z,12.63
2018-07-11T00:11:41.912Z,16.27
2018-07-11T00:14:08.953Z,13.97
2018-07-11T00:16:36.066Z,7.23
2018-07-11T00:19:03.220Z,11.20
2018-07-11T00:21:30.469Z,12.10
2018-07-11T00:23:57.505Z,17.20
2018-07-11T00:26:24.557Z,9.70
2018-07-11T00:28:51.865Z,10.30
2018-07-11T00:31:18.959Z,13.83
2018-07-11T00:33:46.333Z,13.23
2018-07-11T00:36:13.421Z,11.27
2018-07-11T00:38:40.514Z,13.93
2018-07-11T00:41:07.794Z,7.10
2018-07-11T00:43:34.937Z,22.87
2018-07-11T00:46:03.094Z,12.60
2018-07-11T00:48:30.269Z,11.53
2018-07-11T00:50:57.640Z,10.03
2018-07-11T00:53:25.075Z,18.37
2018-07-11T00:55:52.179Z,12.47
2018-07-11T00:58:36.111Z,10.40
2018-07-11T01:01:13.613Z,12.30
2018-07-11T01:03:48.908Z,18.87
2018-07-11T01:06:16.333Z,15.10
2018-07-11T01:08:43.474Z,23.60
2018-07-11T01:11:16.466Z,10.93
2018-07-11T01:13:44.921Z,9.70
2018-07-11T01:16:13.486Z,13.33
2018-07-11T01:19:18.519Z,17.50
2018-07-11T01:21:46.462Z,11.10
2018-07-11T01:24:13.570Z,10.37
2018-07-11T01:26:40.670Z,11.67
2018-07-11T01:29:08.357Z,14.33
2018-07-11T01:31:35.445Z,12.80
2018-07-11T01:34:02.570Z,11.40
2018-07-11T01:36:30.336Z,9.67
2018-07-11T01:38:58.298Z,18.33
2018-07-11T01:41:25.476Z,12.13
2018-07-11T01:43:52.581Z,14.23
2018-07-11T01:46:19.932Z,13.50
2018-07-11T01:48:47.023Z,11.07
2018-07-11T01:51:14.137Z,11.90
2018-07-11T01:53:41.256Z,15.27
2018-07-11T01:56:08.476Z,10.90
2018-07-11T01:58:35.638Z,10.73
2018-07-11T02:01:03.058Z,10.20
2018-07-11T02:03:30.632Z,11.13
2018-07-11T02:05:57.737Z,17.23
2018-07-11T02:08:25.542Z,14.17
2018-07-11T02:10:52.874Z,14.50
2018-07-11T02:13:21.109Z,11.67
2018-07-11T02:15:49.263Z,16.80
2018-07-11T02:18:25.926Z,14.50
2018-07-11T02:20:54.011Z,16.30
2018-07-11T02:23:21.380Z,15.70
2018-07-11T02:25:48.931Z,17.57
2018-07-11T02:28:16.062Z,17.20
2018-07-11T02:30:43.197Z,14.33
2018-07-11T02:33:10.327Z,15.07
2018-07-11T02:35:37.497Z,13.30
2018-07-11T02:38:04.675Z,10.27
2018-07-11T02:40:32.040Z,13.87
2018-07-11T02:42:59.114Z,28.20
2018-07-11T02:45:26.312Z,10.50
2018-07-11T02:47:53.407Z,13.70
2018-07-11T02:50:20.507Z,41.20
2018-07-11T02:52:47.586Z,14.60
2018-07-11T02:55:14.644Z,21.57
2018-07-11T02:57:41.736Z,17.33
2018-07-11T03:00:08.832Z,24.97
2018-07-11T03:02:35.954Z,22.90
2018-07-11T03:05:03.353Z,24.33
2018-07-11T03:07:30.426Z,21.70
2018-07-11T03:09:57.578Z,26.40
2018-07-11T03:12:24.646Z,31.47
2018-07-11T03:14:52.275Z,35.47
2018-07-11T03:17:19.521Z,20.90
2018-07-11T03:19:46.640Z,32.57
2018-07-11T03:22:13.746Z,30.83
2018-07-11T03:24:41.278Z,31.00
2018-07-11T03:27:08.361Z,31.50
2018-07-11T03:29:35.454Z,28.67
2018-07-11T03:32:02.581Z,27.47
2018-07-11T03:34:29.654Z,30.60
2018-07-11T03:36:56.732Z,31.67
2018-07-11T03:39:23.873Z,35.10
2018-07-11T03:41:50.981Z,26.77
2018-07-11T03:44:18.118Z,28.83
2018-07-11T03:49:19.209Z,38.77
2018-07-11T03:51:46.333Z,27.30
2018-07-11T03:54:13.402Z,33.00
2018-07-11T03:56:40.470Z,33.43
2018-07-11T03:59:07.551Z,31.53
2018-07-11T04:01:34.692Z,29.20
2018-07-11T04:04:01.895Z,42.67
2018-07-11T04:06:29.068Z,34.40
2018-07-11T04:08:56.271Z,31.10
2018-07-11T04:11:23.592Z,33.40
2018-07-11T04:13:50.713Z,37.23
2018-07-11T04:16:17.870Z,37.40
2018-07-11T04:18:44.973Z,40.23
2018-07-11T04:21:12.017Z,49.00
2018-07-11T04:23:39.235Z,42.00
2018-07-11T04:26:06.318Z,37.47
2018-07-11T04:28:33.373Z,52.20
2018-07-11T04:31:00.585Z,43.57
2018-07-11T04:33:27.685Z,45.80
2018-07-11T04:35:54.963Z,40.53
2018-07-11T04:38:22.692Z,43.73
2018-07-11T04:40:50.274Z,46.53
2018-07-11T04:43:17.991Z,46.40
2018-07-11T04:45:46.723Z,46.93
2018-07-11T04:48:13.845Z,42.83
2018-07-11T04:50:40.914Z,41.67
2018-07-11T04:53:09.522Z,41.43
2018-07-11T04:55:36.750Z,54.07
2018-07-11T04:58:03.870Z,48.23
2018-07-11T05:00:30.943Z,48.80
2018-07-11T05:02:58.183Z,42.40
2018-07-11T05:05:25.394Z,48.10
2018-07-11T05:07:52.512Z,40.70
2018-07-11T05:10:19.559Z,49.83
2018-07-11T05:12:47.158Z,44.53
2018-07-11T05:15:14.279Z,41.97
2018-07-11T05:17:41.422Z,47.60
2018-07-11T05:20:08.604Z,45.07
2018-07-11T05:22:35.707Z,54.57
2018-07-11T05:25:02.866Z,41.33
2018-07-11T05:27:29.923Z,63.67
2018-07-11T05:29:57.126Z,51.53
2018-07-11T05:32:24.224Z,42.40
2018-07-11T05:34:51.340Z,55.53
2018-07-11T05:37:18.462Z,55.73
2018-07-11T05:39:45.559Z,40.57
2018-07-11T05:42:12.618Z,41.20
2018-07-11T05:44:39.702Z,37.03
2018-07-11T05:47:06.901Z,43.23
2018-07-11T05:49:34.607Z,35.73
2018-07-11T05:52:02.554Z,39.47
2018-07-11T05:54:30.001Z,36.83
2018-07-11T05:56:57.077Z,36.93
2018-07-11T05:59:24.150Z,30.77
2018-07-11T06:01:51.264Z,32.47
2018-07-11T06:04:18.682Z,29.80
2018-07-11T06:06:45.778Z,31.37
2018-07-11T06:09:12.859Z,30.40
2018-07-11T06:11:39.950Z,37.10
2018-07-11T06:14:07.048Z,44.20
2018-07-11T06:16:34.120Z,33.37
2018-07-11T06:19:01.273Z,37.97
2018-07-11T06:21:31.247Z,28.03
2018-07-11T06:23:58.336Z,41.07
2018-07-11T06:26:25.403Z,40.07
2018-07-11T06:28:52.439Z,100.07
2018-07-11T06:31:19.545Z,32.70
2018-07-11T06:33:46.760Z,29.23
2018-07-11T06:36:13.952Z,30.70
2018-07-11T06:38:41.027Z,30.40
2018-07-11T06:41:08.096Z,25.07
2018-07-11T06:43:35.508Z,31.53
2018-07-11T06:46:02.668Z,32.67
2018-07-11T06:48:29.787Z,31.60
2018-07-11T06:50:56.858Z,28.50
2018-07-11T06:53:24.135Z,37.63
2018-07-11T06:55:51.583Z,40.20
2018-07-11T06:58:18.848Z,25.10
2018-07-11T07:00:46.046Z,38.93
2018-07-11T07:03:13.149Z,27.23
2018-07-11T07:05:40.253Z,37.13
2018-07-11T07:08:07.419Z,58.10
2018-07-11T07:10:34.582Z,38.93
2018-07-11T07:13:01.719Z,30.73
2018-07-11T07:15:28.790Z,44.43
2018-07-11T07:17:56.037Z,25.93
2018-07-11T07:20:23.150Z,33.43
2018-07-11T07:22:50.710Z,30.33
2018-07-11T07:25:17.803Z,34.83
2018-07-11T07:27:44.846Z,32.37
2018-07-11T07:30:11.987Z,26.10
2018-07-11T07:32:39.186Z,34.90
2018-07-11T07:35:06.263Z,34.87
2018-07-11T07:37:33.354Z,29.70
2018-07-11T07:42:42.088Z,17.67
2018-07-11T07:45:09.255Z,20.43
2018-07-11T07:47:42.007Z,15.17
2018-07-11T07:50:09.107Z,16.73
2018-07-11T07:52:36.163Z,21.47
2018-07-11T07:55:03.312Z,29.27
2018-07-11T07:57:30.615Z,19.57
2018-07-11T07:59:57.744Z,21.10
2018-07-11T08:02:24.863Z,22.77
2018-07-11T08:04:52.097Z,20.43
2018-07-11T08:07:19.238Z,17.60
2018-07-11T08:09:46.318Z,19.83
2018-07-11T08:12:13.398Z,35.60
2018-07-11T08:14:40.495Z,24.10
2018-07-11T08:17:07.558Z,30.97
2018-07-11T08:19:34.621Z,25.33
2018-07-11T08:22:13.347Z,17.60
2018-07-11T08:24:52.366Z,26.53
2018-07-11T08:27:30.166Z,17.23
2018-07-11T08:30:24.893Z,18.70
2018-07-11T08:33:13.325Z,158.23
2018-07-11T08:36:03.603Z,20.67
2018-07-11T08:42:53.459Z,24.90
2018-07-11T08:45:32.668Z,57.47
2018-07-11T08:48:14.185Z,23.77
2018-07-11T08:50:54.431Z,14.30
2018-07-11T08:54:35.875Z,22.30
2018-07-11T08:57:16.794Z,21.53
2018-07-11T09:00:12.970Z,22.90
2018-07-11T09:02:55.480Z,25.17
2018-07-11T09:05:34.029Z,14.73
2018-07-11T09:08:12.074Z,23.53
2018-07-11T09:12:27.909Z,21.30
2018-07-11T09:15:07.751Z,20.30
2018-07-11T09:17:54.543Z,18.70
2018-07-11T09:21:30.429Z,22.33
2018-07-11T09:24:10.876Z,20.47
2018-07-11T09:26:37.837Z,51.80
2018-07-11T09:29:04.873Z,53.30
2018-07-11T09:31:31.904Z,134.37
2018-07-11T09:33:58.925Z,97.53
2018-07-11T09:36:25.974Z,76.80
2018-07-11T09:38:53.416Z,224.37
2018-07-11T09:41:20.453Z,101.83
2018-07-11T09:43:47.974Z,52.17
2018-07-11T09:46:15.038Z,28.03
2018-07-11T09:48:42.185Z,66.97
2018-07-11T09:51:09.203Z,23.03
2018-07-11T09:53:36.790Z,18.83
2018-07-11T09:56:03.821Z,21.90
2018-07-11T09:58:31.086Z,41.53
2018-07-11T10:01:03.913Z,25.50
2018-07-11T10:03:30.982Z,256.67
2018-07-11T10:05:58.365Z,76.43
2018-07-11T10:08:25.441Z,57.50
2018-07-11T10:10:52.444Z,103.40
2018-07-11T10:13:19.769Z,49.77
2018-07-11T10:15:46.879Z,23.03
2018-07-11T10:18:14.193Z,25.20
2018-07-11T10:20:41.209Z,21.20
2018-07-11T10:23:08.581Z,17.17
2018-07-11T10:25:35.671Z,23.13
2018-07-11T10:28:14.178Z,10.90
2018-07-11T10:30:41.274Z,14.93
2018-07-11T10:33:08.684Z,11.50
2018-07-11T10:35:35.869Z,7.97
2018-07-11T10:38:02.963Z,7.50
2018-07-11T10:40:30.052Z,13.47
2018-07-11T10:42:57.237Z,14.40
2018-07-11T10:45:24.278Z,10.90
2018-07-11T10:47:51.297Z,16.70
2018-07-11T10:50:18.429Z,14.27
2018-07-11T10:52:45.470Z,13.30
2018-07-11T10:55:12.596Z,5.27
2018-07-11T10:57:39.769Z,39.27
2018-07-11T11:00:06.779Z,54.00
2018-07-11T11:02:33.922Z,42.43
2018-07-11T11:05:01.005Z,11.07
2018-07-11T11:07:28.186Z,10.77
2018-07-11T11:09:55.300Z,13.07
2018-07-11T11:12:22.313Z,17.90
2018-07-11T11:14:49.373Z,9.10
2018-07-11T11:17:16.389Z,10.57
2018-07-11T11:19:43.401Z,14.40
2018-07-11T11:22:10.502Z,12.60
2018-07-11T11:24:37.510Z,22.03
2018-07-11T11:27:04.593Z,48.83
2018-07-11T11:29:31.724Z,31.77
2018-07-11T11:31:58.796Z,34.60
2018-07-11T11:34:25.778Z,26.17
2018-07-11T11:36:52.816Z,22.57
2018-07-11T11:39:20.079Z,36.13
2018-07-11T11:41:47.189Z,44.80
2018-07-11T11:44:14.276Z,21.87
2018-07-11T11:46:41.647Z,20.40
2018-07-11T11:49:08.778Z,19.83
2018-07-11T11:51:36.173Z,29.00
2018-07-11T11:54:03.249Z,30.57
2018-07-11T11:56:30.294Z,14.97
2018-07-11T11:58:57.424Z,35.47
2018-07-11T12:01:24.477Z,25.90
2018-07-11T12:03:51.588Z,53.20
2018-07-11T12:06:18.615Z,30.57
2018-07-11T12:08:45.651Z,51.80
2018-07-11T12:11:12.701Z,35.93
2018-07-11T12:13:39.734Z,9.90
2018-07-11T12:16:06.799Z,119.83
2018-07-11T12:18:33.911Z,23.27
2018-07-11T12:21:01.005Z,29.07
2018-07-11T12:23:28.272Z,38.90
2018-07-11T12:26:01.917Z,40.13
2018-07-11T12:28:28.972Z,47.40
2018-07-11T12:30:56.010Z,54.43
2018-07-11T12:33:23.063Z,41.10
2018-07-11T12:35:50.098Z,76.20
2018-07-11T12:38:17.150Z,47.23
2018-07-11T12:40:44.300Z,30.83
2018-07-11T12:43:11.401Z,19.27
2018-07-11T12:45:38.478Z,8.97
2018-07-11T12:48:11.124Z,17.17
2018-07-11T12:50:38.149Z,28.30
2018-07-11T12:53:05.199Z,41.23
2018-07-11T12:55:32.289Z,19.87
2018-07-11T12:57:59.340Z,16.87
2018-07-11T13:00:26.390Z,28.27
2018-07-11T13:02:54.046Z,19.33
2018-07-11T13:05:21.097Z,33.77
2018-07-11T13:07:48.496Z,23.07
2018-07-11T13:10:15.760Z,23.33
2018-07-11T13:12:42.907Z,18.97
2018-07-11T13:15:10.042Z,27.67
2018-07-11T13:17:37.066Z,14.90
2018-07-11T13:20:04.338Z,12.57
2018-07-11T13:22:31.473Z,21.43
2018-07-11T13:24:58.612Z,12.47
2018-07-11T13:27:25.709Z,18.13
2018-07-11T13:29:52.771Z,8.93
2018-07-11T13:32:22.621Z,8.37
2018-07-11T13:34:49.723Z,9.27
2018-07-11T13:37:16.748Z,16.47
2018-07-11T13:39:43.757Z,21.13
2018-07-11T13:42:10.797Z,14.03
2018-07-11T13:44:37.790Z,11.60
2018-07-11T13:47:09.528Z,10.90
2018-07-11T13:49:36.521Z,9.07
2018-07-11T13:52:03.971Z,10.70
2018-07-11T13:54:31.052Z,10.17
2018-07-11T13:56:58.123Z,19.10
2018-07-11T13:59:25.245Z,6.83
2018-07-11T14:01:52.301Z,12.87
2018-07-11T14:04:19.338Z,9.20
2018-07-11T14:06:46.392Z,11.63
2018-07-11T14:09:13.718Z,12.60
2018-07-11T14:11:40.864Z,13.70
2018-07-11T14:14:08.024Z,10.10
2018-07-11T14:16:35.032Z,10.83
2018-07-11T14:19:02.095Z,14.70
2018-07-11T14:21:29.107Z,14.63
2018-07-11T14:23:56.167Z,16.50
2018-07-11T14:26:23.319Z,14.73
2018-07-11T14:28:52.036Z,16.13
2018-07-11T14:31:27.677Z,15.30
2018-07-11T14:33:54.734Z,12.30
2018-07-11T14:36:21.784Z,24.20
2018-07-11T14:38:48.876Z,21.17
2018-07-11T14:41:15.917Z,50.27
2018-07-11T14:43:43.204Z,46.43
2018-07-11T14:46:12.827Z,48.93
2018-07-11T14:48:40.085Z,39.80
2018-07-11T14:51:07.265Z,16.13
2018-07-11T14:53:34.550Z,35.27
2018-07-11T14:56:01.593Z,13.77
2018-07-11T14:58:28.809Z,27.03
2018-07-11T15:00:55.942Z,67.63
2018-07-11T15:03:22.996Z,10.53
2018-07-11T15:05:50.041Z,13.47
2018-07-11T15:08:17.464Z,13.30
2018-07-11T15:10:44.456Z,9.27
2018-07-11T15:13:11.570Z,21.43
2018-07-11T15:15:38.612Z,23.97
2018-07-11T15:18:05.655Z,17.00
2018-07-11T15:20:32.721Z,10.07
2018-07-11T15:22:59.946Z,14.87
2018-07-11T15:25:26.969Z,107.97
2018-07-11T15:27:54.253Z,30.03
2018-07-11T15:30:21.517Z,70.73
2018-07-11T15:32:48.549Z,85.20
2018-07-11T15:35:15.966Z,16.90
2018-07-11T15:37:43.025Z,12.60
2018-07-11T15:40:10.050Z,13.53
2018-07-11T15:42:37.170Z,14.03
2018-07-11T15:45:04.712Z,22.90
2018-07-11T15:47:31.797Z,19.23
2018-07-11T15:49:59.517Z,10.77
2018-07-11T15:52:26.668Z,18.37
2018-07-11T15:54:57.100Z,10.60
2018-07-11T15:57:33.457Z,10.20
2018-07-11T16:00:03.527Z,14.10
2018-07-11T16:02:30.520Z,19.43
2018-07-11T16:04:57.568Z,17.10
2018-07-11T16:07:27.900Z,12.53
2018-07-11T16:09:56.686Z,9.47
2018-07-11T16:12:24.358Z,8.43
2018-07-11T16:14:51.489Z,13.27
2018-07-11T16:17:19.253Z,39.20
2018-07-11T16:19:46.289Z,14.63
2018-07-11T16:22:13.376Z,23.47
2018-07-11T16:24:40.429Z,28.17
2018-07-11T16:27:07.478Z,21.50
2018-07-11T16:29:34.541Z,18.17
2018-07-11T16:32:01.671Z,12.80
2018-07-11T16:34:28.917Z,14.60
2018-07-11T16:36:56.046Z,8.83
2018-07-11T16:39:23.409Z,14.00
2018-07-11T16:41:50.484Z,13.63
2018-07-11T16:44:17.669Z,8.90
2018-07-11T16:46:45.158Z,9.60
2018-07-11T16:49:12.272Z,11.23
2018-07-11T16:51:39.408Z,9.70
2018-07-11T16:54:06.474Z,7.73
2018-07-11T16:56:33.531Z,17.93
2018-07-11T16:59:03.603Z,13.50
2018-07-11T17:01:42.943Z,8.53
2018-07-11T17:04:11.200Z,79.20
2018-07-11T17:06:38.268Z,10.67
2018-07-11T17:09:05.388Z,54.23
2018-07-11T17:11:32.425Z,31.10
2018-07-11T17:14:01.758Z,23.83
2018-07-11T17:16:35.545Z,11.67
2018-07-11T17:19:08.532Z,25.63
2018-07-11T17:21:40.827Z,16.93
2018-07-11T17:24:08.746Z,14.87
2018-07-11T17:26:39.780Z,13.67
2018-07-11T17:29:07.069Z,208.17
2018-07-11T17:31:34.133Z,56.90
2018-07-11T17:34:01.212Z,10.10
2018-07-11T17:36:31.836Z,10.93
2018-07-11T17:38:58.997Z,13.57
2018-07-11T17:41:26.058Z,11.03
2018-07-11T17:43:53.292Z,7.07
2018-07-11T17:46:21.701Z,13.57
2018-07-11T17:49:25.211Z,11.37
2018-07-11T17:51:54.097Z,11.00
2018-07-11T17:54:23.409Z,6.10
2018-07-11T17:56:56.264Z,6.83
2018-07-11T17:59:49.538Z,8.37
2018-07-11T18:02:20.182Z,7.73
2018-07-11T18:04:56.546Z,11.37
2018-07-11T18:07:35.454Z,31.47
2018-07-11T18:10:03.902Z,19.43
2018-07-11T18:13:42.176Z,12.60
2018-07-11T18:16:19.557Z,35.73
2018-07-11T18:19:58.541Z,5.87
2018-07-11T18:24:42.980Z,11.03
2018-07-11T18:29:28.265Z,8.30
2018-07-11T18:34:12.094Z,7.37
2018-07-11T18:36:46.441Z,13.77
2018-07-11T18:39:35.880Z,8.60
2018-07-11T18:42:13.297Z,8.30
2018-07-11T18:44:49.469Z,8.60
2018-07-11T18:47:22.899Z,13.43
2018-07-11T18:52:07.501Z,48.13
2018-07-11T18:56:48.732Z,38.00
2018-07-11T19:01:36.547Z,24.90
2018-07-11T19:04:19.960Z,28.73
2018-07-11T19:07:59.122Z,8.17
2018-07-11T19:10:38.517Z,13.40
2018-07-11T19:13:29.565Z,45.70
2018-07-11T19:16:05.134Z,29.27
2018-07-11T19:18:42.513Z,10.07
2018-07-11T19:21:11.154Z,18.27
2018-07-11T19:24:12.238Z,14.83
2018-07-11T19:26:52.017Z,21.53
2018-07-11T19:29:57.532Z,14.87
2018-07-11T19:32:31.313Z,25.50
2018-07-11T19:36:10.688Z,20.27
2018-07-11T19:38:42.655Z,436.40
2018-07-11T19:41:17.152Z,237.20
2018-07-11T19:43:50.752Z,199.53
2018-07-11T19:46:29.386Z,112.37
2018-07-11T19:49:18.128Z,74.87
2018-07-11T19:51:56.566Z,136.40
2018-07-11T19:54:39.949Z,23.60
2018-07-11T19:57:07.081Z,102.70
2018-07-11T19:59:34.153Z,79.17
2018-07-11T20:02:01.201Z,257.93
2018-07-11T20:04:28.262Z,51.80
2018-07-11T20:06:55.310Z,52.27
2018-07-11T20:09:22.337Z,56.23
2018-07-11T20:11:49.824Z,15.33
2018-07-11T20:14:16.852Z,27.40
2018-07-11T20:16:44.348Z,43.87
2018-07-11T20:19:11.324Z,61.80
2018-07-11T20:21:38.374Z,82.17
2018-07-11T20:24:05.484Z,52.77
2018-07-11T20:26:32.527Z,109.73
2018-07-11T20:28:59.581Z,395.87
2018-07-11T20:31:26.601Z,314.57
2018-07-11T20:33:53.733Z,195.80
2018-07-11T20:36:20.755Z,58.13
2018-07-11T20:38:48.010Z,131.30
2018-07-11T20:41:15.026Z,22.90
2018-07-11T20:43:42.099Z,19.13
2018-07-11T20:46:10.070Z,15.97
2018-07-11T20:48:37.869Z,26.80
2018-07-11T20:51:05.114Z,19.63
2018-07-11T20:53:32.124Z,29.80
2018-07-11T20:55:59.157Z,22.33
2018-07-11T20:58:37.839Z,24.90
2018-07-11T21:01:16.233Z,29.43
2018-07-11T21:04:55.913Z,20.90
2018-07-11T21:07:35.353Z,33.10
2018-07-11T21:10:23.822Z,166.93
2018-07-11T21:13:03.200Z,77.57
2018-07-11T21:15:52.021Z,23.73
2018-07-11T21:18:30.448Z,35.10
2018-07-11T21:20:57.489Z,39.70
2018-07-11T21:23:24.520Z,26.70
2018-07-11T21:25:52.459Z,34.23
2018-07-11T21:28:19.565Z,58.20
2018-07-11T21:30:46.664Z,45.43
2018-07-11T21:33:13.774Z,29.97
2018-07-11T21:35:40.785Z,96.87
2018-07-11T21:38:07.857Z,47.67
2018-07-11T21:40:35.050Z,376.30
2018-07-11T21:43:02.241Z,437.03
2018-07-11T21:45:29.353Z,319.40
2018-07-11T21:47:56.354Z,239.80
2018-07-11T21:50:23.382Z,119.07
2018-07-11T21:52:50.413Z,207.87
2018-07-11T21:55:17.436Z,104.47
2018-07-11T21:57:44.560Z,120.23
2018-07-11T22:00:38.567Z,92.60
2018-07-11T22:03:07.125Z,85.70
2018-07-11T22:05:34.689Z,58.70
2018-07-11T22:08:02.166Z,80.07
2018-07-11T22:10:29.216Z,52.13
2018-07-11T22:12:56.229Z,20.07
2018-07-11T22:15:23.413Z,26.20
2018-07-11T22:18:02.177Z,32.77
2018-07-11T22:20:28.561Z,26.17
2018-07-11T22:22:54.636Z,22.40
2018-07-11T22:25:20.772Z,23.87
2018-07-11T22:27:47.384Z,21.43
2018-07-11T22:30:13.496Z,24.33
2018-07-11T22:32:39.556Z,25.40
2018-07-11T22:35:05.923Z,25.47
2018-07-11T22:37:31.996Z,25.17
2018-07-11T22:39:58.146Z,24.50
2018-07-11T22:42:24.209Z,21.93
2018-07-11T22:44:50.280Z,20.27
2018-07-11T22:47:16.663Z,22.73
2018-07-11T22:49:48.804Z,19.53
2018-07-11T22:52:14.876Z,22.77
2018-07-11T22:54:40.977Z,23.83
2018-07-11T22:57:07.207Z,24.97
2018-07-11T22:59:33.281Z,24.33
2018-07-11T23:01:59.344Z,24.53
2018-07-11T23:04:25.421Z,23.20
2018-07-11T23:06:51.487Z,43.20
2018-07-11T23:09:17.567Z,24.37
2018-07-11T23:11:43.833Z,18.10
2018-07-11T23:14:09.910Z,24.17
2018-07-11T23:16:35.978Z,24.47
2018-07-11T23:19:02.105Z,22.70
2018-07-11T23:21:28.161Z,20.93
2018-07-11T23:23:54.232Z,22.47
2018-07-11T23:26:20.320Z,21.17
2018-07-11T23:28:46.393Z,21.60
2018-07-11T23:31:12.492Z,18.60
2018-07-11T23:33:38.549Z,19.87
2018-07-11T23:36:04.605Z,26.53
2018-07-11T23:38:30.668Z,21.23
2018-07-11T23:40:56.873Z,18.93
2018-07-11T23:43:22.945Z,20.77
2018-07-11T23:45:49.017Z,22.33
2018-07-11T23:48:15.117Z,21.10
2018-07-11T23:50:41.197Z,17.60
2018-07-11T23:53:07.257Z,19.80
2018-07-11T23:55:33.348Z,25.00
2018-07-11T23:57:59.421Z,26.70
